sensor_id;sensor_type;location;lat;lon;timestamp;temperature;humidity
12688;DHT22;6408;59.388;17.798;2022-07-24T00:01:41;15.90;99.90
12688;DHT22;6408;59.388;17.798;2022-07-24T00:04:08;15.90;99.90
12688;DHT22;6408;59.388;17.798;2022-07-24T00:06:35;15.90;99.90
12688;DHT22;6408;59.388;17.798;2022-07-24T00:09:02;15.90;99.90
12688;DHT22;6408;59.388;17.798;2022-07-24T00:11:29;15.90;99.90
12688;DHT22;6408;59.388;17.798;2022-07-24T00:13:57;16.00;99.90
12688;DHT22;6408;59.388;17.798;2022-07-24T00:16:24;16.00;99.90
12688;DHT22;6408;59.388;17.798;2022-07-24T00:18:51;16.00;99.90
12688;DHT22;6408;59.388;17.798;2022-07-24T00:21:18;16.00;99.90
12688;DHT22;6408;59.388;17.798;2022-07-24T00:23:45;16.00;99.90
12688;DHT22;6408;59.388;17.798;2022-07-24T00:26:12;16.00;99.90
12688;DHT22;6408;59.388;17.798;2022-07-24T00:28:39;16.00;99.90
12688;DHT22;6408;59.388;17.798;2022-07-24T00:31:08;16.00;99.90
12688;DHT22;6408;59.388;17.798;2022-07-24T00:33:34;16.00;99.90
12688;DHT22;6408;59.388;17.798;2022-07-24T00:36:02;16.00;99.90
12688;DHT22;6408;59.388;17.798;2022-07-24T00:38:29;16.00;99.90
12688;DHT22;6408;59.388;17.798;2022-07-24T00:40:55;16.00;99.90
12688;DHT22;6408;59.388;17.798;2022-07-24T00:43:22;16.00;99.90
12688;DHT22;6408;59.388;17.798;2022-07-24T00:45:49;16.10;99.90
12688;DHT22;6408;59.388;17.798;2022-07-24T00:48:17;16.10;99.90
12688;DHT22;6408;59.388;17.798;2022-07-24T00:50:44;16.00;99.90
12688;DHT22;6408;59.388;17.798;2022-07-24T00:53:11;16.00;99.90
12688;DHT22;6408;59.388;17.798;2022-07-24T00:55:38;16.00;99.90
12688;DHT22;6408;59.388;17.798;2022-07-24T00:58:05;16.00;99.90
12688;DHT22;6408;59.388;17.798;2022-07-24T01:00:32;16.00;99.90
12688;DHT22;6408;59.388;17.798;2022-07-24T01:02:59;16.00;99.90
12688;DHT22;6408;59.388;17.798;2022-07-24T01:05:27;16.00;99.90
12688;DHT22;6408;59.388;17.798;2022-07-24T01:07:54;16.00;99.90
12688;DHT22;6408;59.388;17.798;2022-07-24T01:10:21;16.00;99.90
12688;DHT22;6408;59.388;17.798;2022-07-24T01:12:48;16.00;99.90
12688;DHT22;6408;59.388;17.798;2022-07-24T01:15:15;16.00;99.90
12688;DHT22;6408;59.388;17.798;2022-07-24T01:17:42;16.00;99.90
12688;DHT22;6408;59.388;17.798;2022-07-24T01:20:10;16.00;99.90
12688;DHT22;6408;59.388;17.798;2022-07-24T01:22:38;16.00;99.90
12688;DHT22;6408;59.388;17.798;2022-07-24T01:25:06;16.00;99.90
12688;DHT22;6408;59.388;17.798;2022-07-24T01:27:32;16.00;99.90
12688;DHT22;6408;59.388;17.798;2022-07-24T01:29:59;16.00;99.90
12688;DHT22;6408;59.388;17.798;2022-07-24T01:32:26;16.00;99.90
12688;DHT22;6408;59.388;17.798;2022-07-24T01:34:53;16.00;99.90
12688;DHT22;6408;59.388;17.798;2022-07-24T01:37:20;16.00;99.90
12688;DHT22;6408;59.388;17.798;2022-07-24T01:39:48;16.00;99.90
12688;DHT22;6408;59.388;17.798;2022-07-24T01:42:15;16.00;99.90
12688;DHT22;6408;59.388;17.798;2022-07-24T01:44:44;16.00;99.90
12688;DHT22;6408;59.388;17.798;2022-07-24T01:47:11;16.00;99.90
12688;DHT22;6408;59.388;17.798;2022-07-24T01:49:38;16.00;99.90
12688;DHT22;6408;59.388;17.798;2022-07-24T01:52:05;16.00;99.90
12688;DHT22;6408;59.388;17.798;2022-07-24T01:54:31;16.00;99.90
12688;DHT22;6408;59.388;17.798;2022-07-24T01:57:00;16.00;99.90
12688;DHT22;6408;59.388;17.798;2022-07-24T01:59:26;16.00;99.90
12688;DHT22;6408;59.388;17.798;2022-07-24T02:01:53;16.00;99.90
12688;DHT22;6408;59.388;17.798;2022-07-24T02:04:20;16.00;99.90
12688;DHT22;6408;59.388;17.798;2022-07-24T02:06:47;16.00;99.90
12688;DHT22;6408;59.388;17.798;2022-07-24T02:09:14;16.00;99.90
12688;DHT22;6408;59.388;17.798;2022-07-24T02:11:41;16.00;99.90
12688;DHT22;6408;59.388;17.798;2022-07-24T02:14:09;16.00;99.90
12688;DHT22;6408;59.388;17.798;2022-07-24T02:16:36;16.00;99.90
12688;DHT22;6408;59.388;17.798;2022-07-24T02:19:03;16.00;99.90
12688;DHT22;6408;59.388;17.798;2022-07-24T02:21:29;16.00;99.90
12688;DHT22;6408;59.388;17.798;2022-07-24T02:23:56;16.00;99.90
12688;DHT22;6408;59.388;17.798;2022-07-24T02:26:23;16.00;99.90
12688;DHT22;6408;59.388;17.798;2022-07-24T02:28:50;16.00;99.90
12688;DHT22;6408;59.388;17.798;2022-07-24T02:31:18;16.00;99.90
12688;DHT22;6408;59.388;17.798;2022-07-24T02:33:45;16.00;99.90
12688;DHT22;6408;59.388;17.798;2022-07-24T02:36:12;16.00;99.90
12688;DHT22;6408;59.388;17.798;2022-07-24T02:38:39;16.00;99.90
12688;DHT22;6408;59.388;17.798;2022-07-24T02:41:06;15.90;99.90
12688;DHT22;6408;59.388;17.798;2022-07-24T02:43:33;15.90;99.90
12688;DHT22;6408;59.388;17.798;2022-07-24T02:45:59;15.90;99.90
12688;DHT22;6408;59.388;17.798;2022-07-24T02:48:28;15.90;99.90
12688;DHT22;6408;59.388;17.798;2022-07-24T02:50:54;15.90;99.90
12688;DHT22;6408;59.388;17.798;2022-07-24T02:53:21;15.90;99.90
12688;DHT22;6408;59.388;17.798;2022-07-24T02:55:48;15.90;99.90
12688;DHT22;6408;59.388;17.798;2022-07-24T02:58:15;15.90;99.90
12688;DHT22;6408;59.388;17.798;2022-07-24T03:00:42;15.90;99.90
12688;DHT22;6408;59.388;17.798;2022-07-24T03:03:08;15.90;99.90
12688;DHT22;6408;59.388;17.798;2022-07-24T03:05:37;15.90;99.90
12688;DHT22;6408;59.388;17.798;2022-07-24T03:08:04;15.90;99.90
12688;DHT22;6408;59.388;17.798;2022-07-24T03:10:31;15.90;99.90
12688;DHT22;6408;59.388;17.798;2022-07-24T03:12:58;15.90;99.90
12688;DHT22;6408;59.388;17.798;2022-07-24T03:15:24;15.90;99.90
12688;DHT22;6408;59.388;17.798;2022-07-24T03:17:53;16.00;99.90
12688;DHT22;6408;59.388;17.798;2022-07-24T03:20:21;16.00;99.90
12688;DHT22;6408;59.388;17.798;2022-07-24T03:22:50;16.00;99.90
12688;DHT22;6408;59.388;17.798;2022-07-24T03:25:17;16.10;99.90
12688;DHT22;6408;59.388;17.798;2022-07-24T03:27:44;16.10;99.90
12688;DHT22;6408;59.388;17.798;2022-07-24T03:30:12;16.10;99.90
12688;DHT22;6408;59.388;17.798;2022-07-24T03:32:39;16.10;99.90
12688;DHT22;6408;59.388;17.798;2022-07-24T03:35:06;16.10;99.90
12688;DHT22;6408;59.388;17.798;2022-07-24T03:37:33;16.20;99.90
12688;DHT22;6408;59.388;17.798;2022-07-24T03:40:03;16.30;99.90
12688;DHT22;6408;59.388;17.798;2022-07-24T03:42:30;16.30;99.90
12688;DHT22;6408;59.388;17.798;2022-07-24T03:44:56;16.30;99.90
12688;DHT22;6408;59.388;17.798;2022-07-24T03:47:23;16.40;99.90
12688;DHT22;6408;59.388;17.798;2022-07-24T03:49:50;16.50;99.90
12688;DHT22;6408;59.388;17.798;2022-07-24T03:52:16;16.50;99.90
12688;DHT22;6408;59.388;17.798;2022-07-24T03:54:43;16.60;99.90
12688;DHT22;6408;59.388;17.798;2022-07-24T03:57:11;16.60;99.90
12688;DHT22;6408;59.388;17.798;2022-07-24T03:59:38;16.80;99.90
12688;DHT22;6408;59.388;17.798;2022-07-24T04:02:05;16.80;99.90
12688;DHT22;6408;59.388;17.798;2022-07-24T04:04:31;16.90;99.90
12688;DHT22;6408;59.388;17.798;2022-07-24T04:06:58;17.00;99.90
12688;DHT22;6408;59.388;17.798;2022-07-24T04:09:25;17.00;99.90
12688;DHT22;6408;59.388;17.798;2022-07-24T04:11:52;17.10;99.90
12688;DHT22;6408;59.388;17.798;2022-07-24T04:14:20;17.10;99.90
12688;DHT22;6408;59.388;17.798;2022-07-24T04:16:47;17.20;99.90
12688;DHT22;6408;59.388;17.798;2022-07-24T04:19:14;17.20;99.90
12688;DHT22;6408;59.388;17.798;2022-07-24T04:21:41;17.20;99.90
12688;DHT22;6408;59.388;17.798;2022-07-24T04:24:07;17.30;99.90
12688;DHT22;6408;59.388;17.798;2022-07-24T04:26:34;17.50;99.90
12688;DHT22;6408;59.388;17.798;2022-07-24T04:29:01;17.70;99.90
12688;DHT22;6408;59.388;17.798;2022-07-24T04:31:29;17.90;99.90
12688;DHT22;6408;59.388;17.798;2022-07-24T04:33:56;18.00;99.90
12688;DHT22;6408;59.388;17.798;2022-07-24T04:36:23;17.80;99.90
12688;DHT22;6408;59.388;17.798;2022-07-24T04:38:49;17.80;99.90
12688;DHT22;6408;59.388;17.798;2022-07-24T04:41:16;17.60;99.90
12688;DHT22;6408;59.388;17.798;2022-07-24T04:43:43;17.60;99.90
12688;DHT22;6408;59.388;17.798;2022-07-24T04:46:10;17.60;99.90
12688;DHT22;6408;59.388;17.798;2022-07-24T04:48:38;17.60;99.90
12688;DHT22;6408;59.388;17.798;2022-07-24T04:51:05;17.60;99.90
12688;DHT22;6408;59.388;17.798;2022-07-24T04:53:32;17.80;99.90
12688;DHT22;6408;59.388;17.798;2022-07-24T04:55:59;17.90;99.90
12688;DHT22;6408;59.388;17.798;2022-07-24T04:58:26;18.10;99.90
12688;DHT22;6408;59.388;17.798;2022-07-24T05:00:53;18.20;99.90
12688;DHT22;6408;59.388;17.798;2022-07-24T05:03:20;18.40;99.90
12688;DHT22;6408;59.388;17.798;2022-07-24T05:05:48;18.60;99.90
12688;DHT22;6408;59.388;17.798;2022-07-24T05:08:15;18.60;99.90
12688;DHT22;6408;59.388;17.798;2022-07-24T05:10:42;18.70;99.90
12688;DHT22;6408;59.388;17.798;2022-07-24T05:13:09;18.80;99.90
12688;DHT22;6408;59.388;17.798;2022-07-24T05:15:36;18.90;99.90
12688;DHT22;6408;59.388;17.798;2022-07-24T05:18:03;18.90;99.90
12688;DHT22;6408;59.388;17.798;2022-07-24T05:20:30;18.90;99.90
12688;DHT22;6408;59.388;17.798;2022-07-24T05:22:58;19.00;99.90
12688;DHT22;6408;59.388;17.798;2022-07-24T05:25:25;19.10;99.90
12688;DHT22;6408;59.388;17.798;2022-07-24T05:27:51;19.10;99.90
12688;DHT22;6408;59.388;17.798;2022-07-24T05:30:18;19.20;99.90
12688;DHT22;6408;59.388;17.798;2022-07-24T05:32:45;19.20;99.90
12688;DHT22;6408;59.388;17.798;2022-07-24T05:35:12;19.50;99.90
12688;DHT22;6408;59.388;17.798;2022-07-24T05:37:38;19.30;99.90
12688;DHT22;6408;59.388;17.798;2022-07-24T05:40:07;19.50;99.90
12688;DHT22;6408;59.388;17.798;2022-07-24T05:42:34;19.40;99.90
12688;DHT22;6408;59.388;17.798;2022-07-24T05:45:01;19.50;99.90
12688;DHT22;6408;59.388;17.798;2022-07-24T05:47:35;19.60;99.90
12688;DHT22;6408;59.388;17.798;2022-07-24T05:50:03;19.80;99.90
12688;DHT22;6408;59.388;17.798;2022-07-24T05:52:31;19.90;99.90
12688;DHT22;6408;59.388;17.798;2022-07-24T05:54:58;19.90;99.90
12688;DHT22;6408;59.388;17.798;2022-07-24T05:57:26;20.10;99.90
12688;DHT22;6408;59.388;17.798;2022-07-24T05:59:53;20.20;99.90
12688;DHT22;6408;59.388;17.798;2022-07-24T06:02:20;20.30;99.90
12688;DHT22;6408;59.388;17.798;2022-07-24T06:04:47;20.40;99.90
12688;DHT22;6408;59.388;17.798;2022-07-24T06:07:13;20.70;99.90
12688;DHT22;6408;59.388;17.798;2022-07-24T06:09:40;20.80;99.90
12688;DHT22;6408;59.388;17.798;2022-07-24T06:12:08;21.00;99.90
12688;DHT22;6408;59.388;17.798;2022-07-24T06:14:36;21.00;99.90
12688;DHT22;6408;59.388;17.798;2022-07-24T06:17:03;21.10;99.90
12688;DHT22;6408;59.388;17.798;2022-07-24T06:19:30;20.80;99.90
12688;DHT22;6408;59.388;17.798;2022-07-24T06:21:56;20.90;99.90
12688;DHT22;6408;59.388;17.798;2022-07-24T06:24:23;20.90;99.90
12688;DHT22;6408;59.388;17.798;2022-07-24T06:26:50;21.00;99.90
12688;DHT22;6408;59.388;17.798;2022-07-24T06:29:17;21.20;99.90
12688;DHT22;6408;59.388;17.798;2022-07-24T06:31:45;21.20;99.90
12688;DHT22;6408;59.388;17.798;2022-07-24T06:34:11;21.20;99.90
12688;DHT22;6408;59.388;17.798;2022-07-24T06:36:38;21.20;99.90
12688;DHT22;6408;59.388;17.798;2022-07-24T06:39:05;21.10;99.90
12688;DHT22;6408;59.388;17.798;2022-07-24T06:41:32;21.00;99.90
12688;DHT22;6408;59.388;17.798;2022-07-24T06:43:58;21.00;99.90
12688;DHT22;6408;59.388;17.798;2022-07-24T06:46:25;21.10;99.90
12688;DHT22;6408;59.388;17.798;2022-07-24T06:48:54;21.20;99.90
12688;DHT22;6408;59.388;17.798;2022-07-24T06:51:21;20.90;99.90
12688;DHT22;6408;59.388;17.798;2022-07-24T06:53:47;21.00;99.90
12688;DHT22;6408;59.388;17.798;2022-07-24T06:56:14;21.40;99.90
12688;DHT22;6408;59.388;17.798;2022-07-24T06:58:41;21.60;99.90
12688;DHT22;6408;59.388;17.798;2022-07-24T07:01:08;21.60;99.90
12688;DHT22;6408;59.388;17.798;2022-07-24T07:03:34;21.90;99.90
12688;DHT22;6408;59.388;17.798;2022-07-24T07:06:03;22.10;99.90
12688;DHT22;6408;59.388;17.798;2022-07-24T07:08:30;21.90;99.90
12688;DHT22;6408;59.388;17.798;2022-07-24T07:10:56;22.00;99.90
12688;DHT22;6408;59.388;17.798;2022-07-24T07:13:23;22.10;99.90
12688;DHT22;6408;59.388;17.798;2022-07-24T07:15:50;22.30;99.90
12688;DHT22;6408;59.388;17.798;2022-07-24T07:18:17;22.30;99.90
12688;DHT22;6408;59.388;17.798;2022-07-24T07:20:43;22.30;99.90
12688;DHT22;6408;59.388;17.798;2022-07-24T07:23:12;22.40;99.90
12688;DHT22;6408;59.388;17.798;2022-07-24T07:25:39;22.30;99.90
12688;DHT22;6408;59.388;17.798;2022-07-24T07:28:06;22.40;99.90
12688;DHT22;6408;59.388;17.798;2022-07-24T07:30:32;22.20;99.90
12688;DHT22;6408;59.388;17.798;2022-07-24T07:32:59;22.40;99.90
12688;DHT22;6408;59.388;17.798;2022-07-24T07:35:26;22.60;99.90
12688;DHT22;6408;59.388;17.798;2022-07-24T07:37:52;22.70;99.90
12688;DHT22;6408;59.388;17.798;2022-07-24T07:40:21;22.80;99.90
12688;DHT22;6408;59.388;17.798;2022-07-24T07:42:47;22.80;99.90
12688;DHT22;6408;59.388;17.798;2022-07-24T07:45:14;22.80;99.90
12688;DHT22;6408;59.388;17.798;2022-07-24T07:47:41;22.80;99.90
12688;DHT22;6408;59.388;17.798;2022-07-24T07:50:09;23.00;99.90
12688;DHT22;6408;59.388;17.798;2022-07-24T07:52:36;23.10;99.90
12688;DHT22;6408;59.388;17.798;2022-07-24T07:55:03;23.30;99.90
12688;DHT22;6408;59.388;17.798;2022-07-24T07:57:31;23.50;99.90
12688;DHT22;6408;59.388;17.798;2022-07-24T07:59:58;23.70;99.90
12688;DHT22;6408;59.388;17.798;2022-07-24T08:02:25;23.50;99.90
12688;DHT22;6408;59.388;17.798;2022-07-24T08:04:52;23.60;99.90
12688;DHT22;6408;59.388;17.798;2022-07-24T08:07:18;23.70;99.90
12688;DHT22;6408;59.388;17.798;2022-07-24T08:09:45;23.80;99.90
12688;DHT22;6408;59.388;17.798;2022-07-24T08:12:12;23.90;99.90
12688;DHT22;6408;59.388;17.798;2022-07-24T08:14:40;24.00;99.90
12688;DHT22;6408;59.388;17.798;2022-07-24T08:17:07;24.20;99.90
12688;DHT22;6408;59.388;17.798;2022-07-24T08:19:34;24.30;99.90
12688;DHT22;6408;59.388;17.798;2022-07-24T08:22:01;24.40;99.90
12688;DHT22;6408;59.388;17.798;2022-07-24T08:24:27;24.50;99.90
12688;DHT22;6408;59.388;17.798;2022-07-24T08:26:55;24.20;99.90
12688;DHT22;6408;59.388;17.798;2022-07-24T08:29:22;24.10;99.90
12688;DHT22;6408;59.388;17.798;2022-07-24T08:31:52;24.10;99.90
12688;DHT22;6408;59.388;17.798;2022-07-24T08:34:19;24.30;99.90
12688;DHT22;6408;59.388;17.798;2022-07-24T08:36:45;24.50;99.90
12688;DHT22;6408;59.388;17.798;2022-07-24T08:39:12;24.60;99.90
12688;DHT22;6408;59.388;17.798;2022-07-24T08:41:41;24.70;99.90
12688;DHT22;6408;59.388;17.798;2022-07-24T08:44:08;25.00;99.90
12688;DHT22;6408;59.388;17.798;2022-07-24T08:46:37;25.00;99.90
12688;DHT22;6408;59.388;17.798;2022-07-24T08:49:08;24.90;99.90
12688;DHT22;6408;59.388;17.798;2022-07-24T08:51:37;24.90;99.90
12688;DHT22;6408;59.388;17.798;2022-07-24T08:54:05;25.00;99.90
12688;DHT22;6408;59.388;17.798;2022-07-24T08:56:32;24.90;99.90
12688;DHT22;6408;59.388;17.798;2022-07-24T08:59:02;24.90;99.90
12688;DHT22;6408;59.388;17.798;2022-07-24T09:01:29;24.90;99.90
12688;DHT22;6408;59.388;17.798;2022-07-24T09:03:56;24.70;99.90
12688;DHT22;6408;59.388;17.798;2022-07-24T09:06:24;24.70;99.90
12688;DHT22;6408;59.388;17.798;2022-07-24T09:08:58;25.10;99.90
12688;DHT22;6408;59.388;17.798;2022-07-24T09:11:25;25.40;99.90
12688;DHT22;6408;59.388;17.798;2022-07-24T09:13:59;25.40;99.90
12688;DHT22;6408;59.388;17.798;2022-07-24T09:16:44;25.50;99.90
12688;DHT22;6408;59.388;17.798;2022-07-24T09:19:11;25.70;99.90
12688;DHT22;6408;59.388;17.798;2022-07-24T09:21:55;25.80;99.90
12688;DHT22;6408;59.388;17.798;2022-07-24T09:24:22;25.60;99.90
12688;DHT22;6408;59.388;17.798;2022-07-24T09:26:50;25.90;99.90
12688;DHT22;6408;59.388;17.798;2022-07-24T09:29:18;26.10;99.90
12688;DHT22;6408;59.388;17.798;2022-07-24T09:31:50;26.20;99.90
12688;DHT22;6408;59.388;17.798;2022-07-24T09:34:16;26.20;99.90
12688;DHT22;6408;59.388;17.798;2022-07-24T09:36:56;26.20;99.90
12688;DHT22;6408;59.388;17.798;2022-07-24T09:39:23;26.40;99.90
12688;DHT22;6408;59.388;17.798;2022-07-24T09:41:52;26.60;99.90
12688;DHT22;6408;59.388;17.798;2022-07-24T09:44:20;26.50;99.90
12688;DHT22;6408;59.388;17.798;2022-07-24T09:46:54;26.20;99.90
12688;DHT22;6408;59.388;17.798;2022-07-24T09:49:22;26.20;99.90
12688;DHT22;6408;59.388;17.798;2022-07-24T09:52:10;26.50;99.90
12688;DHT22;6408;59.388;17.798;2022-07-24T09:54:38;26.40;99.90
12688;DHT22;6408;59.388;17.798;2022-07-24T09:57:17;26.50;99.90
12688;DHT22;6408;59.388;17.798;2022-07-24T09:59:46;26.50;99.90
12688;DHT22;6408;59.388;17.798;2022-07-24T10:02:14;26.50;99.90
12688;DHT22;6408;59.388;17.798;2022-07-24T10:04:42;26.60;99.90
12688;DHT22;6408;59.388;17.798;2022-07-24T10:07:14;26.60;99.90
12688;DHT22;6408;59.388;17.798;2022-07-24T10:09:43;26.40;99.90
12688;DHT22;6408;59.388;17.798;2022-07-24T10:12:12;26.40;99.90
12688;DHT22;6408;59.388;17.798;2022-07-24T10:14:40;26.70;99.90
12688;DHT22;6408;59.388;17.798;2022-07-24T10:17:09;27.00;99.90
12688;DHT22;6408;59.388;17.798;2022-07-24T10:19:42;27.10;99.90
12688;DHT22;6408;59.388;17.798;2022-07-24T10:22:13;27.40;99.90
12688;DHT22;6408;59.388;17.798;2022-07-24T10:24:58;27.30;99.90
12688;DHT22;6408;59.388;17.798;2022-07-24T10:27:35;27.20;99.90
12688;DHT22;6408;59.388;17.798;2022-07-24T10:30:06;27.20;99.90
12688;DHT22;6408;59.388;17.798;2022-07-24T10:32:35;27.00;99.90
12688;DHT22;6408;59.388;17.798;2022-07-24T10:35:12;27.20;99.90
12688;DHT22;6408;59.388;17.798;2022-07-24T10:37:55;27.20;99.90
12688;DHT22;6408;59.388;17.798;2022-07-24T10:40:30;27.10;99.90
12688;DHT22;6408;59.388;17.798;2022-07-24T10:43:13;26.40;99.90
12688;DHT22;6408;59.388;17.798;2022-07-24T10:45:42;26.40;99.90
12688;DHT22;6408;59.388;17.798;2022-07-24T10:48:33;26.70;99.90
12688;DHT22;6408;59.388;17.798;2022-07-24T10:51:10;27.00;99.90
12688;DHT22;6408;59.388;17.798;2022-07-24T10:53:50;26.80;99.90
12688;DHT22;6408;59.388;17.798;2022-07-24T10:56:19;26.80;99.90
12688;DHT22;6408;59.388;17.798;2022-07-24T10:58:55;26.70;99.90
12688;DHT22;6408;59.388;17.798;2022-07-24T11:01:30;26.50;99.90
12688;DHT22;6408;59.388;17.798;2022-07-24T11:03:58;26.50;99.90
12688;DHT22;6408;59.388;17.798;2022-07-24T11:06:40;26.70;99.90
12688;DHT22;6408;59.388;17.798;2022-07-24T11:09:08;26.60;99.90
12688;DHT22;6408;59.388;17.798;2022-07-24T11:11:40;26.50;99.90
12688;DHT22;6408;59.388;17.798;2022-07-24T11:14:09;26.30;99.90
12688;DHT22;6408;59.388;17.798;2022-07-24T11:16:36;26.20;99.90
12688;DHT22;6408;59.388;17.798;2022-07-24T11:19:28;26.10;99.90
12688;DHT22;6408;59.388;17.798;2022-07-24T11:22:09;25.90;99.90
12688;DHT22;6408;59.388;17.798;2022-07-24T11:24:42;26.10;99.90
12688;DHT22;6408;59.388;17.798;2022-07-24T11:27:44;26.40;99.90
12688;DHT22;6408;59.388;17.798;2022-07-24T11:30:12;26.30;99.90
12688;DHT22;6408;59.388;17.798;2022-07-24T11:32:39;26.30;99.90
12688;DHT22;6408;59.388;17.798;2022-07-24T11:35:07;26.40;99.90
12688;DHT22;6408;59.388;17.798;2022-07-24T11:37:35;26.80;99.90
12688;DHT22;6408;59.388;17.798;2022-07-24T11:40:05;27.10;99.90
12688;DHT22;6408;59.388;17.798;2022-07-24T11:42:32;27.30;99.90
12688;DHT22;6408;59.388;17.798;2022-07-24T11:44:59;27.30;99.90
12688;DHT22;6408;59.388;17.798;2022-07-24T11:47:27;27.40;99.90
12688;DHT22;6408;59.388;17.798;2022-07-24T11:49:56;27.30;99.90
12688;DHT22;6408;59.388;17.798;2022-07-24T11:52:27;27.30;99.90
12688;DHT22;6408;59.388;17.798;2022-07-24T11:54:58;27.50;99.90
12688;DHT22;6408;59.388;17.798;2022-07-24T11:57:28;27.70;99.90
12688;DHT22;6408;59.388;17.798;2022-07-24T11:59:55;27.70;99.90
12688;DHT22;6408;59.388;17.798;2022-07-24T12:02:23;27.70;99.90
12688;DHT22;6408;59.388;17.798;2022-07-24T12:04:50;27.70;99.90
12688;DHT22;6408;59.388;17.798;2022-07-24T12:07:19;27.70;99.90
12688;DHT22;6408;59.388;17.798;2022-07-24T12:09:48;27.60;99.90
12688;DHT22;6408;59.388;17.798;2022-07-24T12:12:23;27.40;99.90
12688;DHT22;6408;59.388;17.798;2022-07-24T12:14:59;27.50;99.90
12688;DHT22;6408;59.388;17.798;2022-07-24T12:17:26;27.60;99.90
12688;DHT22;6408;59.388;17.798;2022-07-24T12:19:55;27.80;99.90
12688;DHT22;6408;59.388;17.798;2022-07-24T12:22:23;27.60;99.90
12688;DHT22;6408;59.388;17.798;2022-07-24T12:24:51;27.50;99.90
12688;DHT22;6408;59.388;17.798;2022-07-24T12:27:39;27.60;99.90
12688;DHT22;6408;59.388;17.798;2022-07-24T12:30:23;27.90;99.90
12688;DHT22;6408;59.388;17.798;2022-07-24T12:32:53;27.80;99.90
12688;DHT22;6408;59.388;17.798;2022-07-24T12:35:21;27.90;99.90
12688;DHT22;6408;59.388;17.798;2022-07-24T12:37:47;28.20;99.90
12688;DHT22;6408;59.388;17.798;2022-07-24T12:40:25;28.10;99.90
12688;DHT22;6408;59.388;17.798;2022-07-24T12:43:04;28.00;99.90
12688;DHT22;6408;59.388;17.798;2022-07-24T12:45:34;27.80;99.90
12688;DHT22;6408;59.388;17.798;2022-07-24T12:51:09;27.80;99.90
12688;DHT22;6408;59.388;17.798;2022-07-24T12:53:39;27.20;99.90
12688;DHT22;6408;59.388;17.798;2022-07-24T12:56:11;26.80;99.90
12688;DHT22;6408;59.388;17.798;2022-07-24T12:58:56;26.90;99.90
12688;DHT22;6408;59.388;17.798;2022-07-24T13:01:26;27.10;99.90
12688;DHT22;6408;59.388;17.798;2022-07-24T13:03:55;27.30;99.90
12688;DHT22;6408;59.388;17.798;2022-07-24T13:06:36;27.20;99.90
12688;DHT22;6408;59.388;17.798;2022-07-24T13:09:06;27.20;99.90
12688;DHT22;6408;59.388;17.798;2022-07-24T13:11:34;27.50;99.90
12688;DHT22;6408;59.388;17.798;2022-07-24T13:14:01;27.60;99.90
12688;DHT22;6408;59.388;17.798;2022-07-24T13:16:31;27.40;99.90
12688;DHT22;6408;59.388;17.798;2022-07-24T13:18:58;27.60;99.90
12688;DHT22;6408;59.388;17.798;2022-07-24T13:21:25;27.60;99.90
12688;DHT22;6408;59.388;17.798;2022-07-24T13:23:52;27.80;99.90
12688;DHT22;6408;59.388;17.798;2022-07-24T13:26:19;27.70;99.90
12688;DHT22;6408;59.388;17.798;2022-07-24T13:28:47;27.70;99.90
12688;DHT22;6408;59.388;17.798;2022-07-24T13:31:14;27.70;99.90
12688;DHT22;6408;59.388;17.798;2022-07-24T13:33:42;27.70;99.90
12688;DHT22;6408;59.388;17.798;2022-07-24T13:36:09;27.70;99.90
12688;DHT22;6408;59.388;17.798;2022-07-24T13:38:37;27.80;99.90
12688;DHT22;6408;59.388;17.798;2022-07-24T13:41:04;27.60;99.90
12688;DHT22;6408;59.388;17.798;2022-07-24T13:43:30;27.30;99.90
12688;DHT22;6408;59.388;17.798;2022-07-24T13:45:57;27.30;99.90
12688;DHT22;6408;59.388;17.798;2022-07-24T13:48:24;27.40;99.90
12688;DHT22;6408;59.388;17.798;2022-07-24T13:50:52;27.70;99.90
12688;DHT22;6408;59.388;17.798;2022-07-24T13:53:19;27.80;99.90
12688;DHT22;6408;59.388;17.798;2022-07-24T13:55:46;27.60;99.90
12688;DHT22;6408;59.388;17.798;2022-07-24T13:58:13;27.20;99.90
12688;DHT22;6408;59.388;17.798;2022-07-24T14:00:39;26.90;99.90
12688;DHT22;6408;59.388;17.798;2022-07-24T14:03:06;26.60;99.90
12688;DHT22;6408;59.388;17.798;2022-07-24T14:05:33;26.40;99.90
12688;DHT22;6408;59.388;17.798;2022-07-24T14:08:02;26.20;99.90
12688;DHT22;6408;59.388;17.798;2022-07-24T14:10:29;26.00;99.90
12688;DHT22;6408;59.388;17.798;2022-07-24T14:12:56;25.80;99.90
12688;DHT22;6408;59.388;17.798;2022-07-24T14:15:23;26.00;99.90
12688;DHT22;6408;59.388;17.798;2022-07-24T14:17:49;26.20;99.90
12688;DHT22;6408;59.388;17.798;2022-07-24T14:20:17;26.50;99.90
12688;DHT22;6408;59.388;17.798;2022-07-24T14:22:44;26.90;99.90
12688;DHT22;6408;59.388;17.798;2022-07-24T14:25:12;27.00;99.90
12688;DHT22;6408;59.388;17.798;2022-07-24T14:27:39;27.30;99.90
12688;DHT22;6408;59.388;17.798;2022-07-24T14:30:07;27.20;99.90
12688;DHT22;6408;59.388;17.798;2022-07-24T14:32:34;27.30;99.90
12688;DHT22;6408;59.388;17.798;2022-07-24T14:35:01;27.40;99.90
12688;DHT22;6408;59.388;17.798;2022-07-24T14:37:32;27.40;99.90
12688;DHT22;6408;59.388;17.798;2022-07-24T14:39:59;27.30;99.90
12688;DHT22;6408;59.388;17.798;2022-07-24T14:42:27;27.20;99.90
12688;DHT22;6408;59.388;17.798;2022-07-24T14:44:54;26.90;99.90
12688;DHT22;6408;59.388;17.798;2022-07-24T14:47:20;26.50;99.90
12688;DHT22;6408;59.388;17.798;2022-07-24T14:49:48;26.30;99.90
12688;DHT22;6408;59.388;17.798;2022-07-24T14:52:15;26.40;99.90
12688;DHT22;6408;59.388;17.798;2022-07-24T14:54:43;26.70;99.90
12688;DHT22;6408;59.388;17.798;2022-07-24T14:57:10;26.80;99.90
12688;DHT22;6408;59.388;17.798;2022-07-24T14:59:39;27.00;99.90
12688;DHT22;6408;59.388;17.798;2022-07-24T15:02:06;27.10;99.90
12688;DHT22;6408;59.388;17.798;2022-07-24T15:04:33;27.20;99.90
12688;DHT22;6408;59.388;17.798;2022-07-24T15:07:00;27.10;99.90
12688;DHT22;6408;59.388;17.798;2022-07-24T15:09:27;27.20;99.90
12688;DHT22;6408;59.388;17.798;2022-07-24T15:11:53;27.30;99.90
12688;DHT22;6408;59.388;17.798;2022-07-24T15:14:20;27.20;99.90
12688;DHT22;6408;59.388;17.798;2022-07-24T15:16:48;27.20;99.90
12688;DHT22;6408;59.388;17.798;2022-07-24T15:19:15;27.20;99.90
12688;DHT22;6408;59.388;17.798;2022-07-24T15:21:42;27.00;99.90
12688;DHT22;6408;59.388;17.798;2022-07-24T15:24:09;26.90;99.90
12688;DHT22;6408;59.388;17.798;2022-07-24T15:26:35;26.80;99.90
12688;DHT22;6408;59.388;17.798;2022-07-24T15:29:03;26.70;99.90
12688;DHT22;6408;59.388;17.798;2022-07-24T15:31:30;26.60;99.90
12688;DHT22;6408;59.388;17.798;2022-07-24T15:33:58;26.40;99.90
12688;DHT22;6408;59.388;17.798;2022-07-24T15:36:25;26.20;99.90
12688;DHT22;6408;59.388;17.798;2022-07-24T15:38:52;26.30;99.90
12688;DHT22;6408;59.388;17.798;2022-07-24T15:41:19;26.30;99.90